sensor_id;sensor_type;location;lat;lon;timestamp;P1;durP1;ratioP1;P2;durP2;ratioP2
42094;SDS011;27753;55.724;37.612;2022-08-11T00:00:19;3.00;;;1.65;;
42094;SDS011;27753;55.724;37.612;2022-08-11T00:02:51;3.15;;;1.58;;
42094;SDS011;27753;55.724;37.612;2022-08-11T00:05:19;4.28;;;1.80;;
42094;SDS011;27753;55.724;37.612;2022-08-11T00:07:50;4.05;;;1.60;;
42094;SDS011;27753;55.724;37.612;2022-08-11T00:10:19;3.72;;;1.80;;
42094;SDS011;27753;55.724;37.612;2022-08-11T00:12:53;2.55;;;1.42;;
42094;SDS011;27753;55.724;37.612;2022-08-11T00:15:21;2.13;;;1.70;;
42094;SDS011;27753;55.724;37.612;2022-08-11T00:17:48;1.60;;;1.50;;
42094;SDS011;27753;55.724;37.612;2022-08-11T00:20:21;2.65;;;1.95;;
42094;SDS011;27753;55.724;37.612;2022-08-11T00:22:52;3.25;;;1.70;;
42094;SDS011;27753;55.724;37.612;2022-08-11T00:25:48;4.25;;;1.80;;
42094;SDS011;27753;55.724;37.612;2022-08-11T00:28:25;3.63;;;1.67;;
42094;SDS011;27753;55.724;37.612;2022-08-11T00:30:53;2.50;;;1.85;;
42094;SDS011;27753;55.724;37.612;2022-08-11T00:33:21;4.53;;;1.80;;
42094;SDS011;27753;55.724;37.612;2022-08-11T00:35:50;3.72;;;2.22;;
42094;SDS011;27753;55.724;37.612;2022-08-11T00:38:23;3.72;;;1.83;;
42094;SDS011;27753;55.724;37.612;2022-08-11T00:41:09;5.47;;;1.88;;
42094;SDS011;27753;55.724;37.612;2022-08-11T00:49:37;5.35;;;2.00;;
42094;SDS011;27753;55.724;37.612;2022-08-11T01:01:08;4.53;;;2.15;;
42094;SDS011;27753;55.724;37.612;2022-08-11T01:17:54;4.05;;;2.17;;
42094;SDS011;27753;55.724;37.612;2022-08-11T01:45:58;6.72;;;2.08;;
42094;SDS011;27753;55.724;37.612;2022-08-11T01:48:29;3.35;;;2.10;;
42094;SDS011;27753;55.724;37.612;2022-08-11T01:59:50;4.68;;;1.75;;
42094;SDS011;27753;55.724;37.612;2022-08-11T02:08:20;2.78;;;1.85;;
42094;SDS011;27753;55.724;37.612;2022-08-11T02:11:27;5.07;;;2.50;;
42094;SDS011;27753;55.724;37.612;2022-08-11T02:16:37;4.07;;;1.90;;
42094;SDS011;27753;55.724;37.612;2022-08-11T02:31:18;4.75;;;1.83;;
42094;SDS011;27753;55.724;37.612;2022-08-11T02:37:13;2.63;;;1.88;;
42094;SDS011;27753;55.724;37.612;2022-08-11T02:40:07;3.40;;;1.70;;
42094;SDS011;27753;55.724;37.612;2022-08-11T02:48:03;2.28;;;1.60;;
42094;SDS011;27753;55.724;37.612;2022-08-11T02:56:42;2.55;;;1.48;;
42094;SDS011;27753;55.724;37.612;2022-08-11T02:59:24;5.18;;;1.58;;
42094;SDS011;27753;55.724;37.612;2022-08-11T03:05:10;2.30;;;1.70;;
42094;SDS011;27753;55.724;37.612;2022-08-11T03:22:12;3.30;;;1.95;;
42094;SDS011;27753;55.724;37.612;2022-08-11T03:25:19;3.05;;;2.10;;
42094;SDS011;27753;55.724;37.612;2022-08-11T03:28:19;4.45;;;2.35;;
42094;SDS011;27753;55.724;37.612;2022-08-11T03:34:05;4.25;;;2.53;;
42094;SDS011;27753;55.724;37.612;2022-08-11T03:39:19;4.43;;;2.78;;
42094;SDS011;27753;55.724;37.612;2022-08-11T03:47:48;6.93;;;2.63;;
42094;SDS011;27753;55.724;37.612;2022-08-11T03:59:22;4.18;;;2.90;;
42094;SDS011;27753;55.724;37.612;2022-08-11T04:21:10;7.75;;;3.42;;
42094;SDS011;27753;55.724;37.612;2022-08-11T04:29:29;7.82;;;3.15;;
42094;SDS011;27753;55.724;37.612;2022-08-11T04:42:38;7.00;;;3.70;;
42094;SDS011;27753;55.724;37.612;2022-08-11T04:52:04;6.15;;;3.60;;
42094;SDS011;27753;55.724;37.612;2022-08-11T05:01:26;4.50;;;3.47;;
42094;SDS011;27753;55.724;37.612;2022-08-11T05:13:00;6.38;;;3.00;;
42094;SDS011;27753;55.724;37.612;2022-08-11T05:15:48;9.23;;;4.80;;
42094;SDS011;27753;55.724;37.612;2022-08-11T05:18:44;8.90;;;3.42;;
42094;SDS011;27753;55.724;37.612;2022-08-11T05:21:33;6.55;;;2.95;;
42094;SDS011;27753;55.724;37.612;2022-08-11T05:24:22;9.57;;;5.10;;
42094;SDS011;27753;55.724;37.612;2022-08-11T05:27:21;9.00;;;4.53;;
42094;SDS011;27753;55.724;37.612;2022-08-11T05:30:15;6.53;;;3.35;;
42094;SDS011;27753;55.724;37.612;2022-08-11T05:33:02;8.68;;;2.85;;
42094;SDS011;27753;55.724;37.612;2022-08-11T05:36:26;4.47;;;2.70;;
42094;SDS011;27753;55.724;37.612;2022-08-11T05:39:01;4.72;;;2.92;;
42094;SDS011;27753;55.724;37.612;2022-08-11T05:41:49;10.55;;;3.50;;
42094;SDS011;27753;55.724;37.612;2022-08-11T05:44:39;6.20;;;3.15;;
42094;SDS011;27753;55.724;37.612;2022-08-11T05:47:28;3.90;;;2.47;;
42094;SDS011;27753;55.724;37.612;2022-08-11T05:50:14;5.20;;;2.42;;
42094;SDS011;27753;55.724;37.612;2022-08-11T05:53:01;11.00;;;3.80;;
42094;SDS011;27753;55.724;37.612;2022-08-11T05:55:52;13.80;;;3.28;;
42094;SDS011;27753;55.724;37.612;2022-08-11T05:58:38;7.13;;;4.15;;
42094;SDS011;27753;55.724;37.612;2022-08-11T06:01:06;5.55;;;2.80;;
42094;SDS011;27753;55.724;37.612;2022-08-11T06:03:33;8.60;;;2.95;;
42094;SDS011;27753;55.724;37.612;2022-08-11T06:06:20;6.40;;;2.60;;
42094;SDS011;27753;55.724;37.612;2022-08-11T06:08:47;12.57;;;3.35;;
42094;SDS011;27753;55.724;37.612;2022-08-11T06:13:43;8.23;;;3.15;;
42094;SDS011;27753;55.724;37.612;2022-08-11T06:16:10;2.85;;;2.17;;
42094;SDS011;27753;55.724;37.612;2022-08-11T06:18:44;9.35;;;3.65;;
42094;SDS011;27753;55.724;37.612;2022-08-11T06:21:13;7.57;;;2.83;;
42094;SDS011;27753;55.724;37.612;2022-08-11T06:23:41;6.07;;;2.58;;
42094;SDS011;27753;55.724;37.612;2022-08-11T06:26:07;8.65;;;2.30;;
42094;SDS011;27753;55.724;37.612;2022-08-11T06:28:35;8.52;;;2.90;;
42094;SDS011;27753;55.724;37.612;2022-08-11T06:31:10;12.10;;;3.35;;
42094;SDS011;27753;55.724;37.612;2022-08-11T06:36:43;8.50;;;2.53;;
42094;SDS011;27753;55.724;37.612;2022-08-11T06:39:26;8.32;;;3.33;;
42094;SDS011;27753;55.724;37.612;2022-08-11T06:42:06;7.43;;;2.40;;
42094;SDS011;27753;55.724;37.612;2022-08-11T06:47:07;6.07;;;2.17;;
42094;SDS011;27753;55.724;37.612;2022-08-11T06:49:36;5.07;;;1.88;;
42094;SDS011;27753;55.724;37.612;2022-08-11T06:52:35;7.50;;;2.50;;
42094;SDS011;27753;55.724;37.612;2022-08-11T06:55:21;7.10;;;1.85;;
42094;SDS011;27753;55.724;37.612;2022-08-11T06:58:16;6.03;;;2.33;;
42094;SDS011;27753;55.724;37.612;2022-08-11T07:01:03;11.02;;;2.97;;
42094;SDS011;27753;55.724;37.612;2022-08-11T07:03:32;4.00;;;1.88;;
42094;SDS011;27753;55.724;37.612;2022-08-11T07:06:24;5.65;;;1.50;;
42094;SDS011;27753;55.724;37.612;2022-08-11T07:09:31;4.60;;;2.17;;
42094;SDS011;27753;55.724;37.612;2022-08-11T07:15:08;4.95;;;1.40;;
42094;SDS011;27753;55.724;37.612;2022-08-11T07:17:53;6.85;;;2.22;;
42094;SDS011;27753;55.724;37.612;2022-08-11T07:20:40;6.60;;;1.77;;
42094;SDS011;27753;55.724;37.612;2022-08-11T07:23:25;5.50;;;1.73;;
42094;SDS011;27753;55.724;37.612;2022-08-11T07:26:12;4.22;;;2.05;;
42094;SDS011;27753;55.724;37.612;2022-08-11T07:28:57;3.03;;;1.42;;
42094;SDS011;27753;55.724;37.612;2022-08-11T07:31:31;7.07;;;1.80;;
42094;SDS011;27753;55.724;37.612;2022-08-11T07:34:09;3.88;;;1.52;;
42094;SDS011;27753;55.724;37.612;2022-08-11T07:36:38;7.13;;;2.15;;
42094;SDS011;27753;55.724;37.612;2022-08-11T07:39:05;4.82;;;1.67;;
42094;SDS011;27753;55.724;37.612;2022-08-11T07:41:33;3.05;;;1.35;;
42094;SDS011;27753;55.724;37.612;2022-08-11T07:43:59;3.33;;;1.40;;
42094;SDS011;27753;55.724;37.612;2022-08-11T07:46:40;5.57;;;1.50;;
42094;SDS011;27753;55.724;37.612;2022-08-11T07:49:25;6.57;;;1.10;;
42094;SDS011;27753;55.724;37.612;2022-08-11T07:52:12;1.48;;;1.25;;
42094;SDS011;27753;55.724;37.612;2022-08-11T07:57:28;6.25;;;1.52;;
42094;SDS011;27753;55.724;37.612;2022-08-11T08:00:14;7.53;;;1.85;;
42094;SDS011;27753;55.724;37.612;2022-08-11T08:02:59;4.72;;;1.38;;
42094;SDS011;27753;55.724;37.612;2022-08-11T08:05:45;4.65;;;1.52;;
42094;SDS011;27753;55.724;37.612;2022-08-11T08:08:30;4.05;;;1.17;;
42094;SDS011;27753;55.724;37.612;2022-08-11T08:11:15;3.07;;;1.40;;
42094;SDS011;27753;55.724;37.612;2022-08-11T08:14:00;4.43;;;1.55;;
42094;SDS011;27753;55.724;37.612;2022-08-11T08:16:45;3.00;;;1.00;;
42094;SDS011;27753;55.724;37.612;2022-08-11T08:19:30;3.35;;;1.35;;
42094;SDS011;27753;55.724;37.612;2022-08-11T08:21:57;4.63;;;1.35;;
42094;SDS011;27753;55.724;37.612;2022-08-11T08:24:23;5.03;;;1.60;;
42094;SDS011;27753;55.724;37.612;2022-08-11T08:26:50;3.30;;;1.33;;
42094;SDS011;27753;55.724;37.612;2022-08-11T08:29:22;3.47;;;1.45;;
42094;SDS011;27753;55.724;37.612;2022-08-11T08:32:07;3.90;;;3.50;;
42094;SDS011;27753;55.724;37.612;2022-08-11T08:34:37;3.35;;;1.50;;
42094;SDS011;27753;55.724;37.612;2022-08-11T08:37:05;2.90;;;1.38;;
42094;SDS011;27753;55.724;37.612;2022-08-11T08:39:31;2.97;;;1.13;;
42094;SDS011;27753;55.724;37.612;2022-08-11T08:41:58;4.00;;;1.20;;
42094;SDS011;27753;55.724;37.612;2022-08-11T08:44:26;2.90;;;1.38;;
42094;SDS011;27753;55.724;37.612;2022-08-11T08:46:57;4.63;;;1.63;;
42094;SDS011;27753;55.724;37.612;2022-08-11T08:49:26;2.47;;;1.88;;
42094;SDS011;27753;55.724;37.612;2022-08-11T08:51:53;2.78;;;1.50;;
42094;SDS011;27753;55.724;37.612;2022-08-11T08:54:26;3.00;;;1.63;;
42094;SDS011;27753;55.724;37.612;2022-08-11T08:56:57;5.18;;;3.63;;
42094;SDS011;27753;55.724;37.612;2022-08-11T08:59:27;4.55;;;1.50;;
42094;SDS011;27753;55.724;37.612;2022-08-11T09:02:00;1.63;;;1.02;;
42094;SDS011;27753;55.724;37.612;2022-08-11T09:04:28;3.50;;;1.80;;
42094;SDS011;27753;55.724;37.612;2022-08-11T09:06:55;10.00;;;3.10;;
42094;SDS011;27753;55.724;37.612;2022-08-11T09:09:24;5.43;;;1.50;;
42094;SDS011;27753;55.724;37.612;2022-08-11T09:11:51;5.60;;;1.20;;
42094;SDS011;27753;55.724;37.612;2022-08-11T09:17:09;3.10;;;1.65;;
42094;SDS011;27753;55.724;37.612;2022-08-11T09:19:36;1.60;;;1.13;;
42094;SDS011;27753;55.724;37.612;2022-08-11T09:22:03;3.65;;;2.10;;
42094;SDS011;27753;55.724;37.612;2022-08-11T09:24:48;5.28;;;3.55;;
42094;SDS011;27753;55.724;37.612;2022-08-11T09:27:33;4.63;;;1.60;;
42094;SDS011;27753;55.724;37.612;2022-08-11T09:30:00;5.45;;;1.50;;
42094;SDS011;27753;55.724;37.612;2022-08-11T09:32:26;4.97;;;2.35;;
42094;SDS011;27753;55.724;37.612;2022-08-11T09:34:53;4.80;;;1.10;;
42094;SDS011;27753;55.724;37.612;2022-08-11T09:37:20;2.85;;;1.45;;
42094;SDS011;27753;55.724;37.612;2022-08-11T09:40:06;6.88;;;2.30;;
42094;SDS011;27753;55.724;37.612;2022-08-11T09:42:51;3.08;;;1.77;;
42094;SDS011;27753;55.724;37.612;2022-08-11T09:45:36;3.90;;;1.60;;
42094;SDS011;27753;55.724;37.612;2022-08-11T09:48:03;5.05;;;1.27;;
42094;SDS011;27753;55.724;37.612;2022-08-11T09:50:31;5.32;;;2.67;;
42094;SDS011;27753;55.724;37.612;2022-08-11T09:52:58;1.63;;;1.10;;
42094;SDS011;27753;55.724;37.612;2022-08-11T09:55:28;4.50;;;1.30;;
42094;SDS011;27753;55.724;37.612;2022-08-11T09:57:54;4.82;;;1.88;;
42094;SDS011;27753;55.724;37.612;2022-08-11T10:00:39;1.65;;;1.00;;
42094;SDS011;27753;55.724;37.612;2022-08-11T10:03:06;4.43;;;3.40;;
42094;SDS011;27753;55.724;37.612;2022-08-11T10:05:43;3.10;;;1.98;;
42094;SDS011;27753;55.724;37.612;2022-08-11T10:08:33;7.25;;;1.60;;
42094;SDS011;27753;55.724;37.612;2022-08-11T10:11:03;5.85;;;1.70;;
42094;SDS011;27753;55.724;37.612;2022-08-11T10:13:33;3.58;;;1.50;;
42094;SDS011;27753;55.724;37.612;2022-08-11T10:16:23;3.47;;;1.52;;
42094;SDS011;27753;55.724;37.612;2022-08-11T10:18:52;5.45;;;1.85;;
42094;SDS011;27753;55.724;37.612;2022-08-11T10:21:35;4.90;;;1.77;;
42094;SDS011;27753;55.724;37.612;2022-08-11T10:24:05;6.50;;;1.80;;
42094;SDS011;27753;55.724;37.612;2022-08-11T10:26:52;5.53;;;3.50;;
42094;SDS011;27753;55.724;37.612;2022-08-11T10:29:23;2.95;;;2.20;;
42094;SDS011;27753;55.724;37.612;2022-08-11T10:32:08;4.57;;;3.17;;
42094;SDS011;27753;55.724;37.612;2022-08-11T10:34:54;6.68;;;3.45;;
42094;SDS011;27753;55.724;37.612;2022-08-11T10:37:22;5.70;;;2.80;;
42094;SDS011;27753;55.724;37.612;2022-08-11T10:39:50;6.70;;;4.60;;
42094;SDS011;27753;55.724;37.612;2022-08-11T10:42:17;10.43;;;5.80;;
42094;SDS011;27753;55.724;37.612;2022-08-11T10:45:03;5.07;;;1.83;;
42094;SDS011;27753;55.724;37.612;2022-08-11T10:47:53;3.83;;;2.05;;
42094;SDS011;27753;55.724;37.612;2022-08-11T10:50:20;4.20;;;1.80;;
42094;SDS011;27753;55.724;37.612;2022-08-11T10:53:07;7.43;;;2.35;;
42094;SDS011;27753;55.724;37.612;2022-08-11T10:55:52;3.63;;;1.92;;
42094;SDS011;27753;55.724;37.612;2022-08-11T10:58:37;7.63;;;2.72;;
42094;SDS011;27753;55.724;37.612;2022-08-11T11:03:51;4.55;;;1.83;;
42094;SDS011;27753;55.724;37.612;2022-08-11T11:09:30;5.68;;;2.65;;
42094;SDS011;27753;55.724;37.612;2022-08-11T11:14:56;2.13;;;1.77;;
42094;SDS011;27753;55.724;37.612;2022-08-11T11:17:43;3.38;;;2.00;;
42094;SDS011;27753;55.724;37.612;2022-08-11T11:20:29;9.38;;;3.47;;
42094;SDS011;27753;55.724;37.612;2022-08-11T11:36:30;3.30;;;1.67;;
42094;SDS011;27753;55.724;37.612;2022-08-11T11:39:12;4.63;;;1.63;;
42094;SDS011;27753;55.724;37.612;2022-08-11T11:41:55;3.33;;;2.20;;
42094;SDS011;27753;55.724;37.612;2022-08-11T11:44:21;6.63;;;2.90;;
42094;SDS011;27753;55.724;37.612;2022-08-11T11:46:49;6.18;;;2.28;;
42094;SDS011;27753;55.724;37.612;2022-08-11T11:49:16;2.40;;;1.77;;
42094;SDS011;27753;55.724;37.612;2022-08-11T11:51:44;3.08;;;1.75;;
42094;SDS011;27753;55.724;37.612;2022-08-11T11:54:15;4.68;;;2.15;;
42094;SDS011;27753;55.724;37.612;2022-08-11T11:56:42;2.50;;;2.00;;
42094;SDS011;27753;55.724;37.612;2022-08-11T11:59:09;6.10;;;2.30;;
42094;SDS011;27753;55.724;37.612;2022-08-11T12:01:54;2.63;;;2.00;;
42094;SDS011;27753;55.724;37.612;2022-08-11T12:04:21;6.47;;;2.63;;
42094;SDS011;27753;55.724;37.612;2022-08-11T12:06:48;6.03;;;2.38;;
42094;SDS011;27753;55.724;37.612;2022-08-11T12:09:16;3.90;;;2.00;;
42094;SDS011;27753;55.724;37.612;2022-08-11T12:11:47;6.63;;;2.08;;
42094;SDS011;27753;55.724;37.612;2022-08-11T12:14:33;4.43;;;2.03;;
42094;SDS011;27753;55.724;37.612;2022-08-11T12:17:00;6.22;;;2.38;;
42094;SDS011;27753;55.724;37.612;2022-08-11T12:19:27;6.10;;;2.20;;
42094;SDS011;27753;55.724;37.612;2022-08-11T12:21:54;5.35;;;2.42;;
42094;SDS011;27753;55.724;37.612;2022-08-11T12:24:39;2.95;;;1.73;;
42094;SDS011;27753;55.724;37.612;2022-08-11T12:27:25;4.20;;;2.42;;
42094;SDS011;27753;55.724;37.612;2022-08-11T12:32:27;5.00;;;2.35;;
42094;SDS011;27753;55.724;37.612;2022-08-11T12:34:55;4.80;;;2.17;;
42094;SDS011;27753;55.724;37.612;2022-08-11T12:37:29;6.82;;;2.50;;
42094;SDS011;27753;55.724;37.612;2022-08-11T12:40:02;6.32;;;2.15;;
42094;SDS011;27753;55.724;37.612;2022-08-11T12:42:51;4.60;;;2.55;;
42094;SDS011;27753;55.724;37.612;2022-08-11T12:45:36;6.25;;;2.47;;
42094;SDS011;27753;55.724;37.612;2022-08-11T12:51:00;3.45;;;2.35;;
42094;SDS011;27753;55.724;37.612;2022-08-11T12:53:51;4.60;;;2.30;;
42094;SDS011;27753;55.724;37.612;2022-08-11T12:56:24;4.93;;;2.40;;
42094;SDS011;27753;55.724;37.612;2022-08-11T12:59:15;6.30;;;2.40;;
42094;SDS011;27753;55.724;37.612;2022-08-11T13:02:01;10.60;;;2.70;;
42094;SDS011;27753;55.724;37.612;2022-08-11T13:04:46;8.37;;;3.00;;
42094;SDS011;27753;55.724;37.612;2022-08-11T13:09:52;8.13;;;3.90;;
42094;SDS011;27753;55.724;37.612;2022-08-11T13:12:19;5.18;;;2.42;;
42094;SDS011;27753;55.724;37.612;2022-08-11T13:15:06;3.38;;;2.30;;
42094;SDS011;27753;55.724;37.612;2022-08-11T13:17:39;3.75;;;2.45;;
42094;SDS011;27753;55.724;37.612;2022-08-11T13:22:37;5.28;;;2.83;;
42094;SDS011;27753;55.724;37.612;2022-08-11T13:25:10;4.25;;;2.03;;
42094;SDS011;27753;55.724;37.612;2022-08-11T13:27:37;4.78;;;2.42;;
42094;SDS011;27753;55.724;37.612;2022-08-11T13:30:04;4.82;;;2.50;;
42094;SDS011;27753;55.724;37.612;2022-08-11T13:32:49;4.93;;;2.00;;
42094;SDS011;27753;55.724;37.612;2022-08-11T13:35:15;6.47;;;2.95;;
42094;SDS011;27753;55.724;37.612;2022-08-11T13:37:43;3.97;;;2.42;;
42094;SDS011;27753;55.724;37.612;2022-08-11T13:40:12;5.40;;;2.25;;
42094;SDS011;27753;55.724;37.612;2022-08-11T13:42:40;5.68;;;2.78;;
42094;SDS011;27753;55.724;37.612;2022-08-11T13:45:08;6.35;;;2.67;;
42094;SDS011;27753;55.724;37.612;2022-08-11T13:47:35;8.03;;;2.07;;
42094;SDS011;27753;55.724;37.612;2022-08-11T13:50:02;4.47;;;3.10;;
42094;SDS011;27753;55.724;37.612;2022-08-11T13:52:30;3.97;;;2.42;;
42094;SDS011;27753;55.724;37.612;2022-08-11T13:54:56;5.45;;;2.33;;
42094;SDS011;27753;55.724;37.612;2022-08-11T13:59:52;10.40;;;2.72;;
42094;SDS011;27753;55.724;37.612;2022-08-11T14:02:33;6.38;;;2.65;;
42094;SDS011;27753;55.724;37.612;2022-08-11T14:05:04;5.10;;;2.33;;
42094;SDS011;27753;55.724;37.612;2022-08-11T14:07:47;4.18;;;2.08;;
42094;SDS011;27753;55.724;37.612;2022-08-11T14:10:18;4.47;;;2.15;;
42094;SDS011;27753;55.724;37.612;2022-08-11T14:13:07;3.28;;;1.98;;
42094;SDS011;27753;55.724;37.612;2022-08-11T14:18:19;2.45;;;1.83;;
42094;SDS011;27753;55.724;37.612;2022-08-11T14:20:54;4.25;;;2.58;;
42094;SDS011;27753;55.724;37.612;2022-08-11T14:23:45;4.38;;;2.28;;
42094;SDS011;27753;55.724;37.612;2022-08-11T14:26:14;4.80;;;2.40;;
42094;SDS011;27753;55.724;37.612;2022-08-11T14:28:47;4.55;;;2.03;;
42094;SDS011;27753;55.724;37.612;2022-08-11T14:31:17;4.25;;;1.88;;
42094;SDS011;27753;55.724;37.612;2022-08-11T14:33:44;4.78;;;2.20;;
42094;SDS011;27753;55.724;37.612;2022-08-11T14:36:11;3.17;;;2.17;;
42094;SDS011;27753;55.724;37.612;2022-08-11T14:38:37;6.88;;;2.17;;
42094;SDS011;27753;55.724;37.612;2022-08-11T14:41:05;5.75;;;2.83;;
42094;SDS011;27753;55.724;37.612;2022-08-11T14:43:51;2.45;;;1.88;;
42094;SDS011;27753;55.724;37.612;2022-08-11T14:46:36;3.43;;;2.30;;
42094;SDS011;27753;55.724;37.612;2022-08-11T14:49:22;3.67;;;2.17;;
42094;SDS011;27753;55.724;37.612;2022-08-11T14:51:49;3.70;;;2.20;;
42094;SDS011;27753;55.724;37.612;2022-08-11T14:54:21;4.20;;;2.55;;
42094;SDS011;27753;55.724;37.612;2022-08-11T14:57:10;7.15;;;2.33;;
42094;SDS011;27753;55.724;37.612;2022-08-11T14:59:37;6.43;;;3.63;;
42094;SDS011;27753;55.724;37.612;2022-08-11T15:02:04;4.70;;;2.20;;
42094;SDS011;27753;55.724;37.612;2022-08-11T15:04:52;4.88;;;2.42;;
42094;SDS011;27753;55.724;37.612;2022-08-11T15:07:20;5.85;;;1.92;;
42094;SDS011;27753;55.724;37.612;2022-08-11T15:09:53;2.90;;;2.42;;
42094;SDS011;27753;55.724;37.612;2022-08-11T15:12:24;5.70;;;2.03;;
42094;SDS011;27753;55.724;37.612;2022-08-11T15:14:50;6.43;;;2.20;;
42094;SDS011;27753;55.724;37.612;2022-08-11T15:17:35;6.15;;;2.03;;
42094;SDS011;27753;55.724;37.612;2022-08-11T15:20:05;4.72;;;2.35;;
42094;SDS011;27753;55.724;37.612;2022-08-11T15:22:52;5.07;;;1.92;;
42094;SDS011;27753;55.724;37.612;2022-08-11T15:25:36;6.30;;;4.43;;
42094;SDS011;27753;55.724;37.612;2022-08-11T15:28:04;6.88;;;2.53;;
42094;SDS011;27753;55.724;37.612;2022-08-11T15:30:52;6.90;;;2.88;;
42094;SDS011;27753;55.724;37.612;2022-08-11T15:33:39;6.40;;;2.60;;
42094;SDS011;27753;55.724;37.612;2022-08-11T15:36:26;4.10;;;2.75;;
42094;SDS011;27753;55.724;37.612;2022-08-11T15:39:18;5.97;;;2.40;;
42094;SDS011;27753;55.724;37.612;2022-08-11T15:41:53;9.43;;;3.85;;
42094;SDS011;27753;55.724;37.612;2022-08-11T15:44:58;3.83;;;2.08;;
42094;SDS011;27753;55.724;37.612;2022-08-11T15:47:49;9.55;;;2.97;;
42094;SDS011;27753;55.724;37.612;2022-08-11T15:50:21;7.72;;;3.40;;
42094;SDS011;27753;55.724;37.612;2022-08-11T15:55:25;4.40;;;2.40;;
42094;SDS011;27753;55.724;37.612;2022-08-11T15:57:54;9.48;;;2.42;;
42094;SDS011;27753;55.724;37.612;2022-08-11T16:00:40;4.47;;;2.47;;
42094;SDS011;27753;55.724;37.612;2022-08-11T16:03:25;4.45;;;2.45;;
42094;SDS011;27753;55.724;37.612;2022-08-11T16:06:12;6.85;;;2.60;;
42094;SDS011;27753;55.724;37.612;2022-08-11T16:08:39;6.65;;;2.50;;
42094;SDS011;27753;55.724;37.612;2022-08-11T16:11:07;4.72;;;2.08;;
42094;SDS011;27753;55.724;37.612;2022-08-11T16:13:34;6.47;;;2.72;;
42094;SDS011;27753;55.724;37.612;2022-08-11T16:16:01;6.60;;;2.60;;
42094;SDS011;27753;55.724;37.612;2022-08-11T16:21:13;7.90;;;2.63;;
42094;SDS011;27753;55.724;37.612;2022-08-11T16:23:42;7.13;;;2.40;;
42094;SDS011;27753;55.724;37.612;2022-08-11T16:26:15;4.70;;;2.95;;
42094;SDS011;27753;55.724;37.612;2022-08-11T16:28:49;5.95;;;2.75;;
42094;SDS011;27753;55.724;37.612;2022-08-11T16:31:18;5.57;;;2.60;;
42094;SDS011;27753;55.724;37.612;2022-08-11T16:33:45;3.90;;;2.70;;
42094;SDS011;27753;55.724;37.612;2022-08-11T16:38:57;6.90;;;2.80;;
42094;SDS011;27753;55.724;37.612;2022-08-11T16:41:26;4.85;;;2.60;;
42094;SDS011;27753;55.724;37.612;2022-08-11T16:44:13;4.40;;;2.50;;
42094;SDS011;27753;55.724;37.612;2022-08-11T16:47:00;4.03;;;2.40;;
42094;SDS011;27753;55.724;37.612;2022-08-11T16:49:32;7.22;;;2.75;;
42094;SDS011;27753;55.724;37.612;2022-08-11T16:52:01;4.68;;;2.90;;
42094;SDS011;27753;55.724;37.612;2022-08-11T16:54:30;5.57;;;3.30;;
42094;SDS011;27753;55.724;37.612;2022-08-11T16:56:57;5.30;;;3.40;;
42094;SDS011;27753;55.724;37.612;2022-08-11T16:59:47;8.18;;;3.25;;
42094;SDS011;27753;55.724;37.612;2022-08-11T17:02:17;5.93;;;3.67;;
42094;SDS011;27753;55.724;37.612;2022-08-11T17:05:12;7.50;;;3.50;;
42094;SDS011;27753;55.724;37.612;2022-08-11T17:08:01;5.57;;;3.05;;
42094;SDS011;27753;55.724;37.612;2022-08-11T17:10:48;9.80;;;2.92;;
42094;SDS011;27753;55.724;37.612;2022-08-11T17:16:11;6.55;;;2.90;;
42094;SDS011;27753;55.724;37.612;2022-08-11T17:18:43;8.43;;;3.10;;
42094;SDS011;27753;55.724;37.612;2022-08-11T17:21:15;6.28;;;3.00;;
42094;SDS011;27753;55.724;37.612;2022-08-11T17:28:51;5.03;;;3.47;;
42094;SDS011;27753;55.724;37.612;2022-08-11T17:31:23;6.10;;;3.00;;
42094;SDS011;27753;55.724;37.612;2022-08-11T17:34:09;6.32;;;2.20;;
42094;SDS011;27753;55.724;37.612;2022-08-11T17:36:54;4.65;;;2.58;;
42094;SDS011;27753;55.724;37.612;2022-08-11T17:39:25;5.38;;;3.08;;
42094;SDS011;27753;55.724;37.612;2022-08-11T17:41:54;7.40;;;3.33;;
42094;SDS011;27753;55.724;37.612;2022-08-11T17:44:40;7.53;;;3.00;;
42094;SDS011;27753;55.724;37.612;2022-08-11T17:47:26;7.00;;;3.75;;
42094;SDS011;27753;55.724;37.612;2022-08-11T17:50:12;9.75;;;4.68;;
42094;SDS011;27753;55.724;37.612;2022-08-11T17:52:39;6.27;;;3.40;;
42094;SDS011;27753;55.724;37.612;2022-08-11T17:55:25;6.05;;;3.45;;
42094;SDS011;27753;55.724;37.612;2022-08-11T17:58:12;9.23;;;3.58;;
42094;SDS011;27753;55.724;37.612;2022-08-11T18:00:57;8.98;;;4.18;;
42094;SDS011;27753;55.724;37.612;2022-08-11T18:03:23;5.00;;;3.15;;
42094;SDS011;27753;55.724;37.612;2022-08-11T18:05:57;6.72;;;3.58;;
42094;SDS011;27753;55.724;37.612;2022-08-11T18:08:25;7.35;;;3.35;;
42094;SDS011;27753;55.724;37.612;2022-08-11T18:11:15;4.30;;;2.70;;
42094;SDS011;27753;55.724;37.612;2022-08-11T18:14:05;6.75;;;2.95;;
42094;SDS011;27753;55.724;37.612;2022-08-11T18:16:52;6.20;;;4.10;;
42094;SDS011;27753;55.724;37.612;2022-08-11T18:19:36;5.22;;;3.20;;
42094;SDS011;27753;55.724;37.612;2022-08-11T18:22:27;6.45;;;3.30;;
42094;SDS011;27753;55.724;37.612;2022-08-11T18:25:16;5.72;;;3.65;;
42094;SDS011;27753;55.724;37.612;2022-08-11T18:28:04;7.13;;;3.88;;
42094;SDS011;27753;55.724;37.612;2022-08-11T18:30:52;9.52;;;3.80;;
42094;SDS011;27753;55.724;37.612;2022-08-11T18:33:43;5.30;;;3.80;;
42094;SDS011;27753;55.724;37.612;2022-08-11T18:36:35;8.40;;;3.78;;
42094;SDS011;27753;55.724;37.612;2022-08-11T18:39:23;8.95;;;3.95;;
42094;SDS011;27753;55.724;37.612;2022-08-11T18:42:14;5.75;;;3.88;;
42094;SDS011;27753;55.724;37.612;2022-08-11T18:45:03;7.95;;;3.83;;
42094;SDS011;27753;55.724;37.612;2022-08-11T18:47:53;4.70;;;3.67;;
42094;SDS011;27753;55.724;37.612;2022-08-11T18:50:43;6.63;;;4.00;;
42094;SDS011;27753;55.724;37.612;2022-08-11T18:53:28;5.45;;;3.92;;
42094;SDS011;27753;55.724;37.612;2022-08-11T18:56:14;6.97;;;4.03;;
42094;SDS011;27753;55.724;37.612;2022-08-11T18:58:59;11.95;;;6.28;;
42094;SDS011;27753;55.724;37.612;2022-08-11T19:01:47;8.23;;;4.25;;
42094;SDS011;27753;55.724;37.612;2022-08-11T19:04:35;9.45;;;3.95;;
42094;SDS011;27753;55.724;37.612;2022-08-11T19:07:21;11.43;;;4.40;;
42094;SDS011;27753;55.724;37.612;2022-08-11T19:10:16;11.95;;;4.90;;
42094;SDS011;27753;55.724;37.612;2022-08-11T19:13:03;8.00;;;3.95;;
42094;SDS011;27753;55.724;37.612;2022-08-11T19:15:51;9.15;;;4.38;;
42094;SDS011;27753;55.724;37.612;2022-08-11T19:18:36;5.83;;;4.83;;
42094;SDS011;27753;55.724;37.612;2022-08-11T19:21:23;8.32;;;4.75;;
42094;SDS011;27753;55.724;37.612;2022-08-11T19:24:10;12.35;;;4.05;;
42094;SDS011;27753;55.724;37.612;2022-08-11T19:26:55;5.72;;;4.28;;
42094;SDS011;27753;55.724;37.612;2022-08-11T19:29:41;9.60;;;4.78;;
42094;SDS011;27753;55.724;37.612;2022-08-11T19:32:27;10.10;;;4.88;;
42094;SDS011;27753;55.724;37.612;2022-08-11T19:35:13;7.82;;;4.55;;
42094;SDS011;27753;55.724;37.612;2022-08-11T19:37:58;11.00;;;5.75;;
42094;SDS011;27753;55.724;37.612;2022-08-11T19:40:43;12.23;;;4.43;;
42094;SDS011;27753;55.724;37.612;2022-08-11T19:43:30;7.03;;;4.68;;
42094;SDS011;27753;55.724;37.612;2022-08-11T19:46:17;8.75;;;4.68;;
42094;SDS011;27753;55.724;37.612;2022-08-11T19:49:03;7.60;;;5.15;;
42094;SDS011;27753;55.724;37.612;2022-08-11T19:51:49;10.57;;;5.07;;
42094;SDS011;27753;55.724;37.612;2022-08-11T19:54:34;11.77;;;6.45;;
42094;SDS011;27753;55.724;37.612;2022-08-11T19:57:21;11.80;;;5.82;;
42094;SDS011;27753;55.724;37.612;2022-08-11T20:00:09;14.75;;;5.05;;